createdAt,value
2018-02-04T00:00:29.717Z,-0.19
2018-02-04T00:02:57.330Z,-0.23
2018-02-04T00:05:24.830Z,-0.24
2018-02-04T00:07:52.340Z,-0.19
2018-02-04T00:10:20.100Z,-0.14
2018-02-04T00:12:47.625Z,-0.20
2018-02-04T00:15:15.140Z,-0.10
2018-02-04T00:17:42.687Z,-0.06
2018-02-04T00:20:10.268Z,-0.11
2018-02-04T00:22:39.278Z,-0.07
2018-02-04T00:25:06.895Z,-0.04
2018-02-04T00:27:34.488Z,0.00
2018-02-04T00:30:02.016Z,-0.05
2018-02-04T00:32:29.548Z,-0.08
2018-02-04T00:34:57.049Z,-0.13
2018-02-04T00:37:24.582Z,-0.15
2018-02-04T00:39:52.390Z,-0.11
2018-02-04T00:42:19.898Z,-0.11
2018-02-04T00:44:47.491Z,-0.13
2018-02-04T00:47:14.995Z,-0.20
2018-02-04T00:49:42.584Z,-0.20
2018-02-04T00:52:10.149Z,-0.28
2018-02-04T00:54:37.672Z,-0.26
2018-02-04T00:57:05.203Z,-0.26
2018-02-04T00:59:32.775Z,-0.25
2018-02-04T01:02:00.298Z,-0.23
2018-02-04T01:04:28.258Z,-0.18
2018-02-04T01:06:55.804Z,-0.19
2018-02-04T01:09:23.311Z,-0.21
2018-02-04T01:11:50.815Z,-0.22
2018-02-04T01:14:18.436Z,-0.24
2018-02-04T01:16:46.058Z,-0.29
2018-02-04T01:19:13.615Z,-0.38
2018-02-04T01:21:41.151Z,-0.39
2018-02-04T01:24:08.752Z,-0.36
2018-02-04T01:26:36.297Z,-0.31
2018-02-04T01:29:03.830Z,-0.39
2018-02-04T01:31:31.372Z,-0.42
2018-02-04T01:33:58.900Z,-0.43
2018-02-04T01:36:26.437Z,-0.47
2018-02-04T01:38:53.965Z,-0.47
2018-02-04T01:41:21.478Z,-0.43
2018-02-04T01:43:49.048Z,-0.45
2018-02-04T01:46:16.557Z,-0.55
2018-02-04T01:48:44.084Z,-0.61
2018-02-04T01:51:11.696Z,-0.60
2018-02-04T01:53:39.200Z,-0.63
2018-02-04T01:56:06.703Z,-0.64
2018-02-04T01:58:34.259Z,-0.67
2018-02-04T02:01:01.761Z,-0.69
2018-02-04T02:03:29.282Z,-0.68
2018-02-04T02:05:56.852Z,-0.68
2018-02-04T02:08:24.376Z,-0.64
2018-02-04T02:10:51.985Z,-0.69
2018-02-04T02:13:19.509Z,-0.68
2018-02-04T02:15:47.024Z,-0.69
2018-02-04T02:18:14.560Z,-0.68
2018-02-04T02:20:42.067Z,-0.69
2018-02-04T02:23:09.577Z,-0.69
2018-02-04T02:25:37.073Z,-0.68
2018-02-04T02:28:04.658Z,-0.68
2018-02-04T02:30:32.181Z,-0.66
2018-02-04T02:32:59.709Z,-0.66
2018-02-04T02:35:27.458Z,-0.69
2018-02-04T02:37:55.017Z,-0.69
2018-02-04T02:40:22.517Z,-0.69
2018-02-04T02:42:50.119Z,-0.70
2018-02-04T02:45:17.620Z,-0.68
2018-02-04T02:47:45.165Z,-0.68
2018-02-04T02:50:12.693Z,-0.71
2018-02-04T02:52:40.197Z,-0.75
2018-02-04T02:55:07.784Z,-0.74
2018-02-04T02:57:35.288Z,-0.79
2018-02-04T03:00:02.817Z,-0.84
2018-02-04T03:02:30.608Z,-0.84
2018-02-04T03:04:58.129Z,-0.86
2018-02-04T03:07:25.716Z,-0.89
2018-02-04T03:09:53.258Z,-0.91
2018-02-04T03:12:20.827Z,-0.94
2018-02-04T03:14:48.372Z,-0.98
2018-02-04T03:17:15.873Z,-1.00
2018-02-04T03:19:43.402Z,-1.04
2018-02-04T03:22:10.964Z,-1.05
2018-02-04T03:24:38.504Z,-1.07
2018-02-04T03:27:06.049Z,-1.09
2018-02-04T03:29:33.652Z,-1.10
2018-02-04T03:32:01.201Z,-1.17
2018-02-04T03:34:28.725Z,-1.18
2018-02-04T03:36:56.316Z,-1.23
2018-02-04T03:39:23.849Z,-1.22
2018-02-04T03:41:51.455Z,-1.21
2018-02-04T03:44:18.998Z,-1.23
2018-02-04T03:46:46.555Z,-1.25
2018-02-04T03:49:14.118Z,-1.27
2018-02-04T03:51:41.679Z,-1.27
2018-02-04T03:54:09.241Z,-1.31
2018-02-04T03:56:36.741Z,-1.35
2018-02-04T03:59:04.269Z,-1.38
2018-02-04T04:01:31.786Z,-1.38
2018-02-04T04:03:59.294Z,-1.43
2018-02-04T04:06:26.949Z,-1.40
2018-02-04T04:08:54.512Z,-1.41
2018-02-04T04:11:22.014Z,-1.42
2018-02-04T04:13:49.533Z,-1.43
2018-02-04T04:16:17.057Z,-1.44
2018-02-04T04:18:44.607Z,-1.48
2018-02-04T04:21:12.140Z,-1.47
2018-02-04T04:23:39.721Z,-1.48
2018-02-04T04:26:07.241Z,-1.50
2018-02-04T04:31:01.734Z,-1.55
2018-02-04T04:33:29.275Z,-1.51
2018-02-04T04:35:56.845Z,-1.51
2018-02-04T04:38:24.340Z,-1.58
2018-02-04T04:40:51.944Z,-1.59
2018-02-04T04:43:19.476Z,-1.55
2018-02-04T04:45:46.984Z,-1.59
2018-02-04T04:48:14.540Z,-1.63
2018-02-04T04:50:42.294Z,-1.67
2018-02-04T04:53:09.817Z,-1.68
2018-02-04T04:55:37.321Z,-1.66
2018-02-04T04:58:04.897Z,-1.65
2018-02-04T05:00:32.438Z,-1.62
2018-02-04T05:02:59.933Z,-1.60
2018-02-04T05:05:27.606Z,-1.54
2018-02-04T05:07:55.111Z,-1.59
2018-02-04T05:10:22.823Z,-1.60
2018-02-04T05:12:50.497Z,-1.60
2018-02-04T05:15:18.017Z,-1.62
2018-02-04T05:17:45.544Z,-1.63
2018-02-04T05:20:13.301Z,-1.73
2018-02-04T05:22:40.809Z,-1.75
2018-02-04T05:25:08.307Z,-1.77
2018-02-04T05:27:35.844Z,-1.80
2018-02-04T05:30:03.381Z,-1.81
2018-02-04T05:32:30.891Z,-1.80
2018-02-04T05:34:58.454Z,-1.85
2018-02-04T05:37:26.017Z,-1.87
2018-02-04T05:39:53.514Z,-1.89
2018-02-04T05:42:21.045Z,-1.88
2018-02-04T05:44:48.546Z,-1.84
2018-02-04T05:47:16.112Z,-1.85
2018-02-04T05:49:46.487Z,-1.84
2018-02-04T05:52:14.044Z,-1.84
2018-02-04T05:54:41.799Z,-1.88
2018-02-04T05:57:09.298Z,-1.91
2018-02-04T05:59:36.829Z,-1.88
2018-02-04T06:02:04.375Z,-1.88
2018-02-04T06:04:31.905Z,-1.86
2018-02-04T06:06:59.420Z,-1.80
2018-02-04T06:09:26.948Z,-1.77
2018-02-04T06:11:54.465Z,-1.77
2018-02-04T06:14:21.999Z,-1.76
2018-02-04T06:16:49.626Z,-1.82
2018-02-04T06:19:17.125Z,-1.83
2018-02-04T06:21:44.652Z,-1.86
2018-02-04T06:24:12.193Z,-1.90
2018-02-04T06:26:39.729Z,-1.88
2018-02-04T06:29:07.333Z,-1.93
2018-02-04T06:31:34.900Z,-1.97
2018-02-04T06:34:02.664Z,-2.01
2018-02-04T06:36:30.204Z,-2.00
2018-02-04T06:38:57.712Z,-2.01
2018-02-04T06:41:25.340Z,-1.96
2018-02-04T06:43:52.882Z,-1.96
2018-02-04T06:46:20.435Z,-1.92
2018-02-04T06:48:47.962Z,-1.95
2018-02-04T06:51:15.560Z,-1.98
2018-02-04T06:53:43.087Z,-2.02
2018-02-04T06:56:10.625Z,-2.02
2018-02-04T06:58:38.171Z,-2.06
2018-02-04T07:01:05.725Z,-2.05
2018-02-04T07:03:33.452Z,-1.99
2018-02-04T07:06:00.960Z,-2.04
2018-02-04T07:08:28.597Z,-2.06
2018-02-04T07:10:56.136Z,-2.01
2018-02-04T07:13:23.646Z,-1.95
2018-02-04T07:15:51.285Z,-1.97
2018-02-04T07:18:18.797Z,-1.98
2018-02-04T07:20:46.314Z,-1.99
2018-02-04T07:23:14.030Z,-1.95
2018-02-04T07:25:41.525Z,-1.96
2018-02-04T07:28:09.020Z,-1.94
2018-02-04T07:30:36.637Z,-1.95
2018-02-04T07:33:04.188Z,-1.97
2018-02-04T07:35:31.844Z,-1.96
2018-02-04T07:37:59.376Z,-1.99
2018-02-04T07:40:26.901Z,-1.95
2018-02-04T07:42:54.456Z,-1.97
2018-02-04T07:45:22.031Z,-1.96
2018-02-04T07:47:49.557Z,-1.93
2018-02-04T07:50:17.112Z,-1.90
2018-02-04T07:52:44.753Z,-1.94
2018-02-04T07:55:12.340Z,-1.89
2018-02-04T07:57:39.870Z,-1.81
2018-02-04T08:00:07.423Z,-1.77
2018-02-04T08:02:34.948Z,-1.68
2018-02-04T08:05:02.561Z,-1.64
2018-02-04T08:07:30.086Z,-1.58
2018-02-04T08:09:57.685Z,-1.56
2018-02-04T08:12:25.220Z,-1.55
2018-02-04T08:14:52.725Z,-1.51
2018-02-04T08:17:20.362Z,-1.45
2018-02-04T08:19:47.873Z,-1.36
2018-02-04T08:22:15.397Z,-1.29
2018-02-04T08:24:42.927Z,-1.21
2018-02-04T08:27:10.505Z,-1.17
2018-02-04T08:29:38.014Z,-1.10
2018-02-04T08:32:05.547Z,-1.02
2018-02-04T08:34:33.561Z,-0.94
2018-02-04T08:37:01.461Z,-0.86
2018-02-04T08:39:28.965Z,-0.83
2018-02-04T08:41:56.496Z,-0.78
2018-02-04T08:44:24.031Z,-0.72
2018-02-04T08:46:51.537Z,-0.71
2018-02-04T08:49:19.147Z,-0.64
2018-02-04T08:51:46.688Z,-0.62
2018-02-04T08:54:14.260Z,-0.59
2018-02-04T08:56:41.774Z,-0.55
2018-02-04T08:59:09.290Z,-0.51
2018-02-04T09:01:36.863Z,-0.53
2018-02-04T09:04:04.389Z,-0.45
2018-02-04T09:06:31.939Z,-0.38
2018-02-04T09:08:59.494Z,-0.33
2018-02-04T09:11:27.034Z,-0.22
2018-02-04T09:13:54.721Z,-0.17
2018-02-04T09:16:22.257Z,-0.17
2018-02-04T09:18:49.769Z,-0.08
2018-02-04T09:21:17.317Z,0.03
2018-02-04T09:23:45.058Z,0.10
2018-02-04T09:26:12.622Z,0.17
2018-02-04T09:28:40.197Z,0.21
2018-02-04T09:31:07.777Z,0.19
2018-02-04T09:33:35.404Z,0.25
2018-02-04T09:36:02.947Z,0.28
2018-02-04T09:38:31.377Z,0.16
2018-02-04T09:40:59.106Z,0.15
2018-02-04T09:43:26.632Z,0.19
2018-02-04T09:45:54.223Z,0.20
2018-02-04T09:48:21.753Z,0.31
2018-02-04T09:50:49.337Z,0.34
2018-02-04T09:53:16.878Z,0.36
2018-02-04T09:55:44.416Z,0.43
2018-02-04T09:58:12.017Z,0.36
2018-02-04T10:00:39.580Z,0.44
2018-02-04T10:03:07.120Z,0.56
2018-02-04T10:05:34.642Z,0.60
2018-02-04T10:08:02.193Z,0.53
2018-02-04T10:10:29.706Z,0.51
2018-02-04T10:12:57.306Z,0.60
2018-02-04T10:15:24.856Z,0.68
2018-02-04T10:17:52.360Z,0.83
2018-02-04T10:20:19.956Z,0.86
2018-02-04T10:22:47.515Z,0.83
2018-02-04T10:25:15.045Z,0.92
2018-02-04T10:27:42.556Z,0.93
2018-02-04T10:30:10.104Z,1.00
2018-02-04T10:32:37.753Z,1.07
2018-02-04T10:35:05.312Z,1.12
2018-02-04T10:37:32.840Z,1.07
2018-02-04T10:40:00.369Z,1.13
2018-02-04T10:42:27.904Z,1.18
2018-02-04T10:44:55.460Z,1.25
2018-02-04T10:47:23.021Z,1.26
2018-02-04T10:49:50.540Z,1.30
2018-02-04T10:52:18.037Z,1.32
2018-02-04T10:54:45.588Z,1.33
2018-02-04T10:57:13.084Z,1.39
2018-02-04T10:59:40.596Z,1.42
2018-02-04T11:02:08.255Z,1.38
2018-02-04T11:04:35.745Z,1.48
2018-02-04T11:07:03.266Z,1.53
2018-02-04T11:09:30.828Z,1.70
2018-02-04T11:11:58.356Z,1.92
2018-02-04T11:14:25.905Z,2.06
2018-02-04T11:16:53.445Z,2.02
2018-02-04T11:19:20.966Z,1.97
2018-02-04T11:21:48.477Z,1.76
2018-02-04T11:24:15.996Z,1.81
2018-02-04T11:26:43.513Z,1.93
2018-02-04T11:29:11.033Z,2.08
2018-02-04T11:31:38.549Z,2.14
2018-02-04T11:34:06.078Z,2.15
2018-02-04T11:36:33.605Z,2.20
2018-02-04T11:39:01.139Z,2.28
2018-02-04T11:41:28.658Z,2.45
2018-02-04T11:43:56.225Z,2.40
2018-02-04T11:46:23.754Z,2.48
2018-02-04T11:48:51.277Z,2.45
2018-02-04T11:51:18.815Z,2.43
2018-02-04T11:53:46.334Z,2.52
2018-02-04T11:56:13.861Z,2.37
2018-02-04T11:58:41.576Z,2.36
2018-02-04T12:01:09.089Z,2.46
2018-02-04T12:03:36.629Z,2.58
2018-02-04T12:06:04.182Z,2.55
2018-02-04T12:08:31.733Z,2.58
2018-02-04T12:10:59.281Z,2.70
2018-02-04T12:13:26.834Z,2.76
2018-02-04T12:15:54.405Z,2.78
2018-02-04T12:18:21.957Z,2.98
2018-02-04T12:20:49.493Z,3.12
2018-02-04T12:23:17.207Z,3.23
2018-02-04T12:25:44.734Z,3.35
2018-02-04T12:28:12.233Z,3.37
2018-02-04T12:30:39.769Z,3.44
2018-02-04T12:33:07.287Z,3.45
2018-02-04T12:35:34.814Z,3.77
2018-02-04T12:38:02.377Z,3.64
2018-02-04T12:40:29.899Z,3.43
2018-02-04T12:42:57.422Z,3.50
2018-02-04T12:45:25.049Z,3.66
2018-02-04T12:47:52.572Z,3.79
2018-02-04T12:50:20.153Z,3.67
2018-02-04T12:55:22.176Z,3.22
2018-02-04T12:57:49.694Z,3.32
2018-02-04T13:00:17.200Z,3.50
2018-02-04T13:02:44.762Z,3.69
2018-02-04T13:05:12.289Z,3.82
2018-02-04T13:07:39.817Z,3.78
2018-02-04T13:10:07.349Z,3.73
2018-02-04T13:12:35.076Z,4.05
2018-02-04T13:15:02.598Z,4.03
2018-02-04T13:17:30.106Z,3.81
2018-02-04T13:19:57.725Z,3.80
2018-02-04T13:22:25.273Z,3.38
2018-02-04T13:24:52.797Z,3.29
2018-02-04T13:27:20.354Z,3.13
2018-02-04T13:29:47.861Z,2.77
2018-02-04T13:32:15.385Z,2.70
2018-02-04T13:34:42.918Z,2.64
2018-02-04T13:37:10.658Z,2.62
2018-02-04T13:39:38.200Z,2.50
2018-02-04T13:42:05.732Z,2.43
2018-02-04T13:44:33.322Z,2.45
2018-02-04T13:47:00.845Z,2.41
2018-02-04T13:49:28.356Z,2.34
2018-02-04T13:51:55.882Z,2.34
2018-02-04T13:54:23.398Z,2.30
2018-02-04T13:56:50.958Z,2.22
2018-02-04T13:59:18.477Z,2.32
2018-02-04T14:01:45.970Z,2.25
2018-02-04T14:04:13.502Z,2.12
2018-02-04T14:06:41.048Z,1.96
2018-02-04T14:09:08.577Z,1.89
2018-02-04T14:11:36.125Z,1.84
2018-02-04T14:14:03.634Z,1.79
2018-02-04T14:16:31.150Z,1.95
2018-02-04T14:18:58.689Z,1.97
2018-02-04T14:21:26.189Z,1.85
2018-02-04T14:23:53.709Z,1.72
2018-02-04T14:26:21.254Z,1.79
2018-02-04T14:28:48.753Z,1.81
2018-02-04T14:31:16.285Z,1.94
2018-02-04T14:33:43.873Z,1.94
2018-02-04T14:36:11.385Z,1.91
2018-02-04T14:38:38.907Z,1.72
2018-02-04T14:41:06.482Z,1.72
2018-02-04T14:43:34.017Z,1.72
2018-02-04T14:46:01.545Z,1.69
2018-02-04T14:48:29.090Z,1.64
2018-02-04T14:50:56.598Z,1.59
2018-02-04T14:53:24.122Z,1.59
2018-02-04T14:55:51.657Z,1.56
2018-02-04T14:58:19.193Z,1.56
2018-02-04T15:00:46.705Z,1.55
2018-02-04T15:03:14.265Z,1.45
2018-02-04T15:05:41.811Z,1.43
2018-02-04T15:08:09.344Z,1.48
2018-02-04T15:10:36.888Z,1.48
2018-02-04T15:13:04.443Z,1.42
2018-02-04T15:15:31.973Z,1.40
2018-02-04T15:17:59.489Z,1.37
2018-02-04T15:20:27.262Z,1.31
2018-02-04T15:22:54.790Z,1.21
2018-02-04T15:25:22.325Z,1.18
2018-02-04T15:27:49.869Z,1.25
2018-02-04T15:30:17.397Z,1.25
2018-02-04T15:32:44.938Z,1.25
2018-02-04T15:35:12.700Z,1.23
2018-02-04T15:37:40.261Z,1.19
2018-02-04T15:40:07.766Z,1.20
2018-02-04T15:42:35.293Z,1.15
2018-02-04T15:45:02.873Z,1.07
2018-02-04T15:47:30.404Z,1.07
2018-02-04T15:49:57.909Z,1.07
2018-02-04T15:52:25.438Z,1.08
2018-02-04T15:54:52.955Z,1.04
2018-02-04T15:57:20.485Z,0.99
2018-02-04T15:59:48.059Z,0.99
2018-02-04T16:02:15.577Z,1.00
2018-02-04T16:04:43.100Z,1.02
2018-02-04T16:07:10.662Z,1.04
2018-02-04T16:09:38.213Z,1.07
2018-02-04T16:12:05.742Z,1.01
2018-02-04T16:14:33.301Z,1.01
2018-02-04T16:17:00.863Z,0.99
2018-02-04T16:19:28.417Z,1.00
2018-02-04T16:21:55.925Z,0.86
2018-02-04T16:24:23.458Z,0.79
2018-02-04T16:26:51.465Z,0.84
2018-02-04T16:29:19.076Z,0.83
2018-02-04T16:31:46.625Z,0.80
2018-02-04T16:34:14.148Z,0.87
2018-02-04T16:36:41.689Z,0.91
2018-02-04T16:39:09.397Z,0.91
2018-02-04T16:41:36.940Z,0.91
2018-02-04T16:44:04.509Z,0.94
2018-02-04T16:46:32.466Z,0.96
2018-02-04T16:49:00.077Z,0.95
2018-02-04T16:51:27.725Z,1.05
2018-02-04T16:53:55.232Z,0.97
2018-02-04T16:56:22.769Z,0.94
2018-02-04T16:58:50.323Z,0.91
2018-02-04T17:01:17.833Z,0.89
2018-02-04T17:03:45.492Z,0.92
2018-02-04T17:06:13.006Z,0.90
2018-02-04T17:08:40.515Z,0.89
2018-02-04T17:11:08.141Z,0.91
2018-02-04T17:13:35.673Z,0.91
2018-02-04T17:16:03.241Z,0.97
2018-02-04T17:18:30.745Z,0.92
2018-02-04T17:20:58.286Z,0.94
2018-02-04T17:23:25.858Z,0.95
2018-02-04T17:25:53.385Z,0.96
2018-02-04T17:28:20.935Z,0.95
2018-02-04T17:30:48.461Z,0.95
2018-02-04T17:33:15.974Z,0.88
2018-02-04T17:35:43.549Z,0.84
2018-02-04T17:38:11.064Z,0.82
2018-02-04T17:40:38.732Z,0.72
2018-02-04T17:43:06.346Z,0.70
2018-02-04T17:45:33.874Z,0.73
2018-02-04T17:48:01.416Z,0.74
2018-02-04T17:50:29.588Z,0.82
2018-02-04T17:52:57.116Z,0.79
2018-02-04T17:55:24.675Z,0.80
2018-02-04T17:57:52.187Z,0.90
2018-02-04T18:00:20.518Z,0.88
2018-02-04T18:02:48.081Z,0.85
2018-02-04T18:05:16.493Z,0.90
2018-02-04T18:07:44.042Z,0.94
2018-02-04T18:10:11.582Z,1.00
2018-02-04T18:12:39.112Z,1.01
2018-02-04T18:15:06.652Z,0.98
2018-02-04T18:17:34.207Z,0.91
2018-02-04T18:20:01.827Z,0.96
2018-02-04T18:22:29.390Z,1.00
2018-02-04T18:24:56.958Z,1.04
2018-02-04T18:27:24.702Z,1.01
2018-02-04T18:29:52.217Z,0.97
2018-02-04T18:32:19.727Z,0.99
2018-02-04T18:34:47.273Z,1.02
2018-02-04T18:37:14.802Z,1.08
2018-02-04T18:39:42.375Z,1.09
2018-02-04T18:42:09.917Z,1.06
2018-02-04T18:44:37.435Z,1.09
2018-02-04T18:47:04.952Z,1.08
2018-02-04T18:49:32.651Z,1.03
2018-02-04T18:52:00.209Z,1.07
2018-02-04T18:54:27.741Z,1.09
2018-02-04T18:56:55.307Z,1.08
2018-02-04T18:59:22.968Z,1.09
2018-02-04T19:01:50.532Z,1.11
2018-02-04T19:04:18.106Z,1.10
2018-02-04T19:06:45.610Z,1.02
2018-02-04T19:09:13.226Z,1.02
2018-02-04T19:11:40.801Z,0.98
2018-02-04T19:14:08.344Z,0.95
2018-02-04T19:16:35.928Z,0.94
2018-02-04T19:19:03.547Z,0.94
2018-02-04T19:21:31.114Z,1.01
2018-02-04T19:23:58.651Z,1.02
2018-02-04T19:26:26.180Z,1.04
2018-02-04T19:28:53.798Z,1.07
2018-02-04T19:31:21.360Z,1.08
2018-02-04T19:33:48.888Z,1.13
2018-02-04T19:36:16.431Z,1.16
2018-02-04T19:38:43.960Z,1.20
2018-02-04T19:41:11.673Z,1.22
2018-02-04T19:43:39.173Z,1.22
2018-02-04T19:46:06.697Z,1.27
2018-02-04T19:48:34.438Z,1.29
2018-02-04T19:51:02.036Z,1.30
2018-02-04T19:53:29.558Z,1.33
2018-02-04T19:55:57.081Z,1.33
2018-02-04T19:58:24.587Z,1.35
2018-02-04T20:00:52.111Z,1.34
2018-02-04T20:03:19.633Z,1.34
2018-02-04T20:05:47.214Z,1.33
2018-02-04T20:08:14.734Z,1.34
2018-02-04T20:10:42.237Z,1.35
2018-02-04T20:13:09.852Z,1.36
2018-02-04T20:15:37.356Z,1.36
2018-02-04T20:18:04.890Z,1.35
2018-02-04T20:20:32.429Z,1.35
2018-02-04T20:22:59.973Z,1.34
2018-02-04T20:25:27.539Z,1.36
2018-02-04T20:27:55.090Z,1.35
2018-02-04T20:30:22.698Z,1.28
2018-02-04T20:33:02.155Z,1.26
2018-02-04T20:35:29.664Z,1.23
2018-02-04T20:37:57.168Z,1.19
2018-02-04T20:40:24.891Z,1.14
2018-02-04T20:42:52.545Z,1.14
2018-02-04T20:45:20.099Z,1.14
2018-02-04T20:47:47.663Z,1.13
2018-02-04T20:50:15.236Z,1.15
2018-02-04T20:52:42.741Z,1.10
2018-02-04T20:55:10.290Z,1.13
2018-02-04T20:57:37.839Z,1.09
2018-02-04T21:00:05.362Z,1.11
2018-02-04T21:02:32.917Z,1.12
2018-02-04T21:05:00.569Z,1.11
2018-02-04T21:07:28.142Z,1.06
2018-02-04T21:09:55.668Z,1.04
2018-02-04T21:12:23.213Z,1.02
2018-02-04T21:14:50.716Z,0.98
2018-02-04T21:17:18.297Z,0.91
2018-02-04T21:19:45.859Z,0.85
2018-02-04T21:22:13.371Z,0.83
2018-02-04T21:24:40.943Z,0.79
2018-02-04T21:27:08.466Z,0.77
2018-02-04T21:29:36.005Z,0.77
2018-02-04T21:32:03.634Z,0.75
2018-02-04T21:34:31.161Z,0.76
2018-02-04T21:36:58.748Z,0.74
2018-02-04T21:39:26.311Z,0.76
2018-02-04T21:41:53.840Z,0.77
2018-02-04T21:44:21.360Z,0.76
2018-02-04T21:46:48.908Z,0.74
2018-02-04T21:49:16.484Z,0.74
2018-02-04T21:51:44.072Z,0.69
2018-02-04T21:54:11.600Z,0.64
2018-02-04T21:56:39.152Z,0.63
2018-02-04T21:59:06.652Z,0.57
2018-02-04T22:01:34.260Z,0.53
2018-02-04T22:04:02.025Z,0.48
2018-02-04T22:06:29.559Z,0.42
2018-02-04T22:08:57.092Z,0.38
2018-02-04T22:11:24.701Z,0.36
2018-02-04T22:13:52.209Z,0.32
2018-02-04T22:16:19.817Z,0.31
2018-02-04T22:18:47.349Z,0.31
2018-02-04T22:21:15.022Z,0.33
2018-02-04T22:23:42.524Z,0.32
2018-02-04T22:26:10.165Z,0.30
2018-02-04T22:28:37.742Z,0.29
2018-02-04T22:31:05.261Z,0.31
2018-02-04T22:33:32.794Z,0.33
2018-02-04T22:36:00.397Z,0.36
2018-02-04T22:38:27.960Z,0.40
2018-02-04T22:40:55.492Z,0.45
2018-02-04T22:43:23.048Z,0.48
2018-02-04T22:45:50.561Z,0.49
2018-02-04T22:48:18.089Z,0.52
2018-02-04T22:50:45.728Z,0.56
2018-02-04T22:53:13.245Z,0.58
2018-02-04T22:55:40.876Z,0.60
2018-02-04T22:58:08.421Z,0.61
2018-02-04T23:00:35.951Z,0.65
2018-02-04T23:03:03.503Z,0.68
2018-02-04T23:05:31.111Z,0.71
2018-02-04T23:07:58.637Z,0.71
2018-02-04T23:10:26.211Z,0.73
2018-02-04T23:12:53.778Z,0.71
2018-02-04T23:15:21.306Z,0.73
2018-02-04T23:17:48.847Z,0.74
2018-02-04T23:20:16.578Z,0.74
2018-02-04T23:22:44.142Z,0.79
2018-02-04T23:25:11.682Z,0.81
2018-02-04T23:27:39.360Z,0.83
2018-02-04T23:30:06.869Z,0.82
2018-02-04T23:32:34.393Z,0.81
2018-02-04T23:35:02.029Z,0.77
2018-02-04T23:37:29.557Z,0.79
2018-02-04T23:39:57.153Z,0.77
2018-02-04T23:42:24.709Z,0.79
2018-02-04T23:44:52.241Z,0.72
2018-02-04T23:47:19.782Z,0.55
2018-02-04T23:49:47.332Z,0.44
2018-02-04T23:52:14.845Z,0.38
2018-02-04T23:54:42.395Z,0.39
2018-02-04T23:57:09.905Z,0.39
2018-02-04T23:59:37.468Z,0.38
